sensor_id;sensor_type;location;lat;lon;timestamp;P1;durP1;ratioP1;P2;durP2;ratioP2
12687;SDS011;6408;59.388;17.798;2024-01-11T00:00:32;1.57;;;0.60;;
12687;SDS011;6408;59.388;17.798;2024-01-11T00:03:00;0.57;;;0.57;;
12687;SDS011;6408;59.388;17.798;2024-01-11T00:05:29;2.37;;;0.70;;
12687;SDS011;6408;59.388;17.798;2024-01-11T00:07:56;2.83;;;0.80;;
12687;SDS011;6408;59.388;17.798;2024-01-11T00:10:23;0.90;;;0.40;;
12687;SDS011;6408;59.388;17.798;2024-01-11T00:12:53;2.03;;;0.63;;
12687;SDS011;6408;59.388;17.798;2024-01-11T00:15:34;0.67;;;0.40;;
12687;SDS011;6408;59.388;17.798;2024-01-11T00:18:04;0.63;;;0.50;;
12687;SDS011;6408;59.388;17.798;2024-01-11T00:20:36;2.80;;;0.87;;
12687;SDS011;6408;59.388;17.798;2024-01-11T00:23:08;1.30;;;0.60;;
12687;SDS011;6408;59.388;17.798;2024-01-11T00:25:35;1.83;;;0.77;;
12687;SDS011;6408;59.388;17.798;2024-01-11T00:28:08;0.90;;;0.60;;
12687;SDS011;6408;59.388;17.798;2024-01-11T00:30:35;0.60;;;0.60;;
12687;SDS011;6408;59.388;17.798;2024-01-11T00:33:04;0.57;;;0.20;;
12687;SDS011;6408;59.388;17.798;2024-01-11T00:35:33;1.33;;;0.50;;
12687;SDS011;6408;59.388;17.798;2024-01-11T00:38:00;1.33;;;0.53;;
12687;SDS011;6408;59.388;17.798;2024-01-11T00:40:27;1.30;;;0.60;;
12687;SDS011;6408;59.388;17.798;2024-01-11T00:42:54;2.20;;;0.27;;
12687;SDS011;6408;59.388;17.798;2024-01-11T00:45:22;2.73;;;0.70;;
12687;SDS011;6408;59.388;17.798;2024-01-11T00:47:52;0.47;;;0.43;;
12687;SDS011;6408;59.388;17.798;2024-01-11T00:50:21;0.33;;;0.30;;
12687;SDS011;6408;59.388;17.798;2024-01-11T00:52:52;0.70;;;0.17;;
12687;SDS011;6408;59.388;17.798;2024-01-11T00:55:20;0.47;;;0.40;;
12687;SDS011;6408;59.388;17.798;2024-01-11T00:57:49;1.17;;;0.70;;
12687;SDS011;6408;59.388;17.798;2024-01-11T01:00:19;0.43;;;0.40;;
12687;SDS011;6408;59.388;17.798;2024-01-11T01:02:47;0.43;;;0.43;;
12687;SDS011;6408;59.388;17.798;2024-01-11T01:05:15;1.23;;;0.40;;
12687;SDS011;6408;59.388;17.798;2024-01-11T01:07:43;1.27;;;0.33;;
12687;SDS011;6408;59.388;17.798;2024-01-11T01:10:27;1.63;;;0.57;;
12687;SDS011;6408;59.388;17.798;2024-01-11T01:12:55;0.40;;;0.40;;
12687;SDS011;6408;59.388;17.798;2024-01-11T01:15:26;0.30;;;0.30;;
12687;SDS011;6408;59.388;17.798;2024-01-11T01:18:02;0.53;;;0.40;;
12687;SDS011;6408;59.388;17.798;2024-01-11T01:20:53;0.87;;;0.57;;
12687;SDS011;6408;59.388;17.798;2024-01-11T01:23:24;0.50;;;0.30;;
12687;SDS011;6408;59.388;17.798;2024-01-11T01:25:52;0.70;;;0.30;;
12687;SDS011;6408;59.388;17.798;2024-01-11T01:28:21;0.27;;;0.27;;
12687;SDS011;6408;59.388;17.798;2024-01-11T01:30:48;0.23;;;0.20;;
12687;SDS011;6408;59.388;17.798;2024-01-11T01:33:22;0.20;;;0.20;;
12687;SDS011;6408;59.388;17.798;2024-01-11T01:35:51;0.30;;;0.30;;
12687;SDS011;6408;59.388;17.798;2024-01-11T01:38:21;0.20;;;0.20;;
12687;SDS011;6408;59.388;17.798;2024-01-11T01:40:49;0.30;;;0.27;;
12687;SDS011;6408;59.388;17.798;2024-01-11T01:43:18;0.83;;;0.30;;
12687;SDS011;6408;59.388;17.798;2024-01-11T01:45:45;0.30;;;0.30;;
12687;SDS011;6408;59.388;17.798;2024-01-11T01:48:13;0.30;;;0.27;;
12687;SDS011;6408;59.388;17.798;2024-01-11T01:50:40;1.80;;;0.40;;
12687;SDS011;6408;59.388;17.798;2024-01-11T01:53:19;0.40;;;0.20;;
12687;SDS011;6408;59.388;17.798;2024-01-11T01:55:47;0.93;;;0.40;;
12687;SDS011;6408;59.388;17.798;2024-01-11T01:58:15;1.70;;;0.40;;
12687;SDS011;6408;59.388;17.798;2024-01-11T02:00:45;1.13;;;0.20;;
12687;SDS011;6408;59.388;17.798;2024-01-11T02:03:13;0.27;;;0.27;;
12687;SDS011;6408;59.388;17.798;2024-01-11T02:05:43;0.20;;;0.20;;
12687;SDS011;6408;59.388;17.798;2024-01-11T02:08:12;0.77;;;0.30;;
12687;SDS011;6408;59.388;17.798;2024-01-11T02:10:42;1.53;;;0.40;;
12687;SDS011;6408;59.388;17.798;2024-01-11T02:13:11;0.33;;;0.33;;
12687;SDS011;6408;59.388;17.798;2024-01-11T02:15:38;0.30;;;0.30;;
12687;SDS011;6408;59.388;17.798;2024-01-11T02:18:08;0.20;;;0.20;;
12687;SDS011;6408;59.388;17.798;2024-01-11T02:20:36;0.97;;;0.30;;
12687;SDS011;6408;59.388;17.798;2024-01-11T02:23:08;0.20;;;0.20;;
12687;SDS011;6408;59.388;17.798;2024-01-11T02:25:41;1.57;;;0.30;;
12687;SDS011;6408;59.388;17.798;2024-01-11T02:28:08;1.37;;;0.57;;
12687;SDS011;6408;59.388;17.798;2024-01-11T02:30:36;1.40;;;0.27;;
12687;SDS011;6408;59.388;17.798;2024-01-11T02:33:06;0.20;;;0.20;;
12687;SDS011;6408;59.388;17.798;2024-01-11T02:35:37;0.60;;;0.30;;
12687;SDS011;6408;59.388;17.798;2024-01-11T02:38:06;0.50;;;0.20;;
12687;SDS011;6408;59.388;17.798;2024-01-11T02:40:36;2.23;;;0.50;;
12687;SDS011;6408;59.388;17.798;2024-01-11T02:43:10;0.10;;;0.10;;
12687;SDS011;6408;59.388;17.798;2024-01-11T02:45:37;0.53;;;0.20;;
12687;SDS011;6408;59.388;17.798;2024-01-11T02:48:07;0.40;;;0.13;;
12687;SDS011;6408;59.388;17.798;2024-01-11T02:50:35;0.17;;;0.17;;
12687;SDS011;6408;59.388;17.798;2024-01-11T02:53:02;0.30;;;0.20;;
12687;SDS011;6408;59.388;17.798;2024-01-11T02:55:30;0.37;;;0.33;;
12687;SDS011;6408;59.388;17.798;2024-01-11T02:57:57;0.33;;;0.27;;
12687;SDS011;6408;59.388;17.798;2024-01-11T03:00:27;1.27;;;0.47;;
12687;SDS011;6408;59.388;17.798;2024-01-11T03:02:54;0.10;;;0.10;;
12687;SDS011;6408;59.388;17.798;2024-01-11T03:05:29;0.20;;;0.20;;
12687;SDS011;6408;59.388;17.798;2024-01-11T03:07:56;0.50;;;0.30;;
12687;SDS011;6408;59.388;17.798;2024-01-11T03:10:26;0.93;;;0.40;;
12687;SDS011;6408;59.388;17.798;2024-01-11T03:12:53;2.20;;;0.40;;
12687;SDS011;6408;59.388;17.798;2024-01-11T03:15:20;0.27;;;0.20;;
12687;SDS011;6408;59.388;17.798;2024-01-11T03:17:49;1.23;;;0.30;;
12687;SDS011;6408;59.388;17.798;2024-01-11T03:20:16;1.00;;;0.30;;
12687;SDS011;6408;59.388;17.798;2024-01-11T03:22:49;0.67;;;0.20;;
12687;SDS011;6408;59.388;17.798;2024-01-11T03:25:17;0.20;;;0.20;;
12687;SDS011;6408;59.388;17.798;2024-01-11T03:27:45;0.40;;;0.20;;
12687;SDS011;6408;59.388;17.798;2024-01-11T03:30:13;0.63;;;0.13;;
12687;SDS011;6408;59.388;17.798;2024-01-11T03:32:41;0.90;;;0.23;;
12687;SDS011;6408;59.388;17.798;2024-01-11T03:35:10;0.10;;;0.10;;
12687;SDS011;6408;59.388;17.798;2024-01-11T03:37:38;1.00;;;0.40;;
12687;SDS011;6408;59.388;17.798;2024-01-11T03:40:07;0.83;;;0.60;;
12687;SDS011;6408;59.388;17.798;2024-01-11T03:42:34;1.03;;;0.23;;
12687;SDS011;6408;59.388;17.798;2024-01-11T03:45:01;0.20;;;0.10;;
12687;SDS011;6408;59.388;17.798;2024-01-11T03:47:29;0.53;;;0.20;;
12687;SDS011;6408;59.388;17.798;2024-01-11T03:49:56;0.10;;;0.10;;
12687;SDS011;6408;59.388;17.798;2024-01-11T03:52:25;0.57;;;0.30;;
12687;SDS011;6408;59.388;17.798;2024-01-11T03:54:52;0.83;;;0.20;;
12687;SDS011;6408;59.388;17.798;2024-01-11T03:57:20;0.20;;;0.20;;
12687;SDS011;6408;59.388;17.798;2024-01-11T03:59:48;0.17;;;0.17;;
12687;SDS011;6408;59.388;17.798;2024-01-11T04:02:16;0.20;;;0.20;;
12687;SDS011;6408;59.388;17.798;2024-01-11T04:04:44;0.00;;;0.00;;
12687;SDS011;6408;59.388;17.798;2024-01-11T04:07:12;0.83;;;0.10;;
12687;SDS011;6408;59.388;17.798;2024-01-11T04:09:41;0.23;;;0.20;;
12687;SDS011;6408;59.388;17.798;2024-01-11T04:12:08;0.30;;;0.30;;
12687;SDS011;6408;59.388;17.798;2024-01-11T04:14:37;0.40;;;0.10;;
12687;SDS011;6408;59.388;17.798;2024-01-11T04:17:08;0.10;;;0.10;;
12687;SDS011;6408;59.388;17.798;2024-01-11T04:19:35;0.83;;;0.30;;
12687;SDS011;6408;59.388;17.798;2024-01-11T04:22:03;0.10;;;0.00;;
12687;SDS011;6408;59.388;17.798;2024-01-11T04:24:30;0.30;;;0.07;;
12687;SDS011;6408;59.388;17.798;2024-01-11T04:27:00;0.13;;;0.10;;
12687;SDS011;6408;59.388;17.798;2024-01-11T04:29:28;0.47;;;0.10;;
12687;SDS011;6408;59.388;17.798;2024-01-11T04:31:56;0.10;;;0.10;;
12687;SDS011;6408;59.388;17.798;2024-01-11T04:34:24;0.80;;;0.30;;
12687;SDS011;6408;59.388;17.798;2024-01-11T04:36:54;0.37;;;0.30;;
12687;SDS011;6408;59.388;17.798;2024-01-11T04:39:27;0.87;;;0.10;;
12687;SDS011;6408;59.388;17.798;2024-01-11T04:41:54;0.17;;;0.10;;
12687;SDS011;6408;59.388;17.798;2024-01-11T04:44:23;0.30;;;0.23;;
12687;SDS011;6408;59.388;17.798;2024-01-11T04:46:50;0.20;;;0.10;;
12687;SDS011;6408;59.388;17.798;2024-01-11T04:49:19;0.40;;;0.13;;
12687;SDS011;6408;59.388;17.798;2024-01-11T04:51:47;0.60;;;0.20;;
12687;SDS011;6408;59.388;17.798;2024-01-11T04:54:14;0.20;;;0.20;;
12687;SDS011;6408;59.388;17.798;2024-01-11T04:56:41;0.10;;;0.10;;
12687;SDS011;6408;59.388;17.798;2024-01-11T04:59:09;0.50;;;0.20;;
12687;SDS011;6408;59.388;17.798;2024-01-11T05:01:49;0.40;;;0.20;;
12687;SDS011;6408;59.388;17.798;2024-01-11T05:04:16;0.20;;;0.20;;
12687;SDS011;6408;59.388;17.798;2024-01-11T05:06:44;1.80;;;0.10;;
12687;SDS011;6408;59.388;17.798;2024-01-11T05:09:17;0.97;;;0.20;;
12687;SDS011;6408;59.388;17.798;2024-01-11T05:11:44;0.10;;;0.10;;
12687;SDS011;6408;59.388;17.798;2024-01-11T05:14:11;0.00;;;0.00;;
12687;SDS011;6408;59.388;17.798;2024-01-11T05:16:39;0.30;;;0.30;;
12687;SDS011;6408;59.388;17.798;2024-01-11T05:19:08;0.13;;;0.10;;
12687;SDS011;6408;59.388;17.798;2024-01-11T05:21:35;2.23;;;0.47;;
12687;SDS011;6408;59.388;17.798;2024-01-11T05:24:03;0.13;;;0.10;;
12687;SDS011;6408;59.388;17.798;2024-01-11T05:26:31;0.30;;;0.30;;
12687;SDS011;6408;59.388;17.798;2024-01-11T05:28:59;1.63;;;0.30;;
12687;SDS011;6408;59.388;17.798;2024-01-11T05:31:29;0.30;;;0.23;;
12687;SDS011;6408;59.388;17.798;2024-01-11T05:33:57;1.27;;;0.30;;
12687;SDS011;6408;59.388;17.798;2024-01-11T05:36:30;0.17;;;0.17;;
12687;SDS011;6408;59.388;17.798;2024-01-11T05:38:59;0.67;;;0.20;;
12687;SDS011;6408;59.388;17.798;2024-01-11T05:41:28;0.10;;;0.10;;
12687;SDS011;6408;59.388;17.798;2024-01-11T05:43:57;0.50;;;0.30;;
12687;SDS011;6408;59.388;17.798;2024-01-11T05:46:25;0.20;;;0.10;;
12687;SDS011;6408;59.388;17.798;2024-01-11T05:48:55;0.20;;;0.20;;
12687;SDS011;6408;59.388;17.798;2024-01-11T05:51:22;0.30;;;0.30;;
12687;SDS011;6408;59.388;17.798;2024-01-11T05:53:51;0.30;;;0.30;;
12687;SDS011;6408;59.388;17.798;2024-01-11T05:56:18;0.30;;;0.20;;
12687;SDS011;6408;59.388;17.798;2024-01-11T05:58:46;0.20;;;0.10;;
12687;SDS011;6408;59.388;17.798;2024-01-11T06:01:14;0.50;;;0.10;;
12687;SDS011;6408;59.388;17.798;2024-01-11T06:03:42;0.27;;;0.27;;
12687;SDS011;6408;59.388;17.798;2024-01-11T06:06:09;0.27;;;0.27;;
12687;SDS011;6408;59.388;17.798;2024-01-11T06:08:39;0.67;;;0.20;;
12687;SDS011;6408;59.388;17.798;2024-01-11T06:11:13;0.43;;;0.30;;
12687;SDS011;6408;59.388;17.798;2024-01-11T06:13:43;0.20;;;0.17;;
12687;SDS011;6408;59.388;17.798;2024-01-11T06:16:10;0.63;;;0.40;;
12687;SDS011;6408;59.388;17.798;2024-01-11T06:18:37;2.27;;;0.40;;
12687;SDS011;6408;59.388;17.798;2024-01-11T06:21:06;0.70;;;0.40;;
12687;SDS011;6408;59.388;17.798;2024-01-11T06:23:33;1.80;;;0.20;;
12687;SDS011;6408;59.388;17.798;2024-01-11T06:26:00;0.20;;;0.20;;
12687;SDS011;6408;59.388;17.798;2024-01-11T06:28:29;0.33;;;0.33;;
12687;SDS011;6408;59.388;17.798;2024-01-11T06:30:56;0.10;;;0.10;;
12687;SDS011;6408;59.388;17.798;2024-01-11T06:33:24;1.70;;;0.40;;
12687;SDS011;6408;59.388;17.798;2024-01-11T06:35:54;0.50;;;0.20;;
12687;SDS011;6408;59.388;17.798;2024-01-11T06:38:28;0.23;;;0.13;;
12687;SDS011;6408;59.388;17.798;2024-01-11T06:40:57;0.20;;;0.20;;
12687;SDS011;6408;59.388;17.798;2024-01-11T06:43:26;0.90;;;0.37;;
12687;SDS011;6408;59.388;17.798;2024-01-11T06:45:55;0.67;;;0.13;;
12687;SDS011;6408;59.388;17.798;2024-01-11T06:48:22;0.13;;;0.13;;
12687;SDS011;6408;59.388;17.798;2024-01-11T06:50:49;0.40;;;0.23;;
12687;SDS011;6408;59.388;17.798;2024-01-11T06:53:17;0.93;;;0.73;;
12687;SDS011;6408;59.388;17.798;2024-01-11T06:55:44;1.30;;;0.60;;
12687;SDS011;6408;59.388;17.798;2024-01-11T06:58:15;3.30;;;0.73;;
12687;SDS011;6408;59.388;17.798;2024-01-11T07:00:43;0.80;;;0.47;;
12687;SDS011;6408;59.388;17.798;2024-01-11T07:03:12;0.40;;;0.40;;
12687;SDS011;6408;59.388;17.798;2024-01-11T07:05:40;0.30;;;0.20;;
12687;SDS011;6408;59.388;17.798;2024-01-11T07:08:07;0.87;;;0.20;;
12687;SDS011;6408;59.388;17.798;2024-01-11T07:10:34;0.20;;;0.20;;
12687;SDS011;6408;59.388;17.798;2024-01-11T07:13:02;0.20;;;0.20;;
12687;SDS011;6408;59.388;17.798;2024-01-11T07:15:31;0.60;;;0.30;;
12687;SDS011;6408;59.388;17.798;2024-01-11T07:17:59;0.30;;;0.30;;
12687;SDS011;6408;59.388;17.798;2024-01-11T07:20:30;1.27;;;0.20;;
12687;SDS011;6408;59.388;17.798;2024-01-11T07:22:58;0.20;;;0.10;;
12687;SDS011;6408;59.388;17.798;2024-01-11T07:25:27;0.37;;;0.33;;
12687;SDS011;6408;59.388;17.798;2024-01-11T07:27:54;0.13;;;0.13;;
12687;SDS011;6408;59.388;17.798;2024-01-11T07:30:22;0.33;;;0.17;;
12687;SDS011;6408;59.388;17.798;2024-01-11T07:32:49;3.13;;;0.30;;
12687;SDS011;6408;59.388;17.798;2024-01-11T07:35:16;0.73;;;0.67;;
12687;SDS011;6408;59.388;17.798;2024-01-11T07:37:45;1.27;;;0.80;;
12687;SDS011;6408;59.388;17.798;2024-01-11T07:40:15;1.80;;;0.13;;
12687;SDS011;6408;59.388;17.798;2024-01-11T07:42:43;1.20;;;0.50;;
12687;SDS011;6408;59.388;17.798;2024-01-11T07:45:11;0.40;;;0.40;;
12687;SDS011;6408;59.388;17.798;2024-01-11T07:47:38;0.67;;;0.40;;
12687;SDS011;6408;59.388;17.798;2024-01-11T07:50:07;1.27;;;0.70;;
12687;SDS011;6408;59.388;17.798;2024-01-11T07:52:39;2.17;;;1.23;;
12687;SDS011;6408;59.388;17.798;2024-01-11T07:55:09;1.47;;;0.53;;
12687;SDS011;6408;59.388;17.798;2024-01-11T07:57:39;0.97;;;0.50;;
12687;SDS011;6408;59.388;17.798;2024-01-11T08:00:07;0.83;;;0.40;;
12687;SDS011;6408;59.388;17.798;2024-01-11T08:02:38;0.53;;;0.50;;
12687;SDS011;6408;59.388;17.798;2024-01-11T08:05:06;1.33;;;0.33;;
12687;SDS011;6408;59.388;17.798;2024-01-11T08:07:36;0.90;;;0.80;;
12687;SDS011;6408;59.388;17.798;2024-01-11T08:10:04;2.80;;;1.13;;
12687;SDS011;6408;59.388;17.798;2024-01-11T08:12:35;3.87;;;0.70;;
12687;SDS011;6408;59.388;17.798;2024-01-11T08:15:04;1.40;;;0.50;;
12687;SDS011;6408;59.388;17.798;2024-01-11T08:17:35;0.30;;;0.23;;
12687;SDS011;6408;59.388;17.798;2024-01-11T08:20:03;0.97;;;0.90;;
12687;SDS011;6408;59.388;17.798;2024-01-11T08:22:36;0.60;;;0.60;;
12687;SDS011;6408;59.388;17.798;2024-01-11T08:25:06;0.83;;;0.70;;
12687;SDS011;6408;59.388;17.798;2024-01-11T08:27:33;0.50;;;0.50;;
12687;SDS011;6408;59.388;17.798;2024-01-11T08:30:03;0.90;;;0.70;;
12687;SDS011;6408;59.388;17.798;2024-01-11T08:32:32;1.43;;;0.57;;
12687;SDS011;6408;59.388;17.798;2024-01-11T08:35:04;0.50;;;0.47;;
12687;SDS011;6408;59.388;17.798;2024-01-11T08:37:32;0.73;;;0.50;;
12687;SDS011;6408;59.388;17.798;2024-01-11T08:39:59;1.50;;;0.37;;
12687;SDS011;6408;59.388;17.798;2024-01-11T08:42:29;1.93;;;0.60;;
12687;SDS011;6408;59.388;17.798;2024-01-11T08:44:58;1.40;;;0.50;;
12687;SDS011;6408;59.388;17.798;2024-01-11T08:47:32;1.30;;;0.43;;
12687;SDS011;6408;59.388;17.798;2024-01-11T08:50:00;1.37;;;0.50;;
12687;SDS011;6408;59.388;17.798;2024-01-11T08:52:31;1.20;;;0.57;;
12687;SDS011;6408;59.388;17.798;2024-01-11T08:54:58;0.97;;;0.40;;
12687;SDS011;6408;59.388;17.798;2024-01-11T08:57:25;0.37;;;0.27;;
12687;SDS011;6408;59.388;17.798;2024-01-11T08:59:57;0.97;;;0.30;;
12687;SDS011;6408;59.388;17.798;2024-01-11T09:02:27;0.93;;;0.30;;
12687;SDS011;6408;59.388;17.798;2024-01-11T09:04:55;2.10;;;0.50;;
12687;SDS011;6408;59.388;17.798;2024-01-11T09:07:23;1.07;;;0.40;;
12687;SDS011;6408;59.388;17.798;2024-01-11T09:09:59;1.90;;;0.30;;
12687;SDS011;6408;59.388;17.798;2024-01-11T09:12:28;0.73;;;0.50;;
12687;SDS011;6408;59.388;17.798;2024-01-11T09:14:55;4.60;;;0.50;;
12687;SDS011;6408;59.388;17.798;2024-01-11T09:17:25;1.00;;;0.50;;
12687;SDS011;6408;59.388;17.798;2024-01-11T09:19:53;1.43;;;0.50;;
12687;SDS011;6408;59.388;17.798;2024-01-11T09:22:20;1.33;;;0.50;;
12687;SDS011;6408;59.388;17.798;2024-01-11T09:24:48;1.13;;;0.40;;
12687;SDS011;6408;59.388;17.798;2024-01-11T09:27:16;0.87;;;0.50;;
12687;SDS011;6408;59.388;17.798;2024-01-11T09:29:46;0.97;;;0.50;;
12687;SDS011;6408;59.388;17.798;2024-01-11T09:32:15;2.10;;;0.70;;
12687;SDS011;6408;59.388;17.798;2024-01-11T09:34:46;0.90;;;0.30;;
12687;SDS011;6408;59.388;17.798;2024-01-11T09:37:13;0.93;;;0.40;;
12687;SDS011;6408;59.388;17.798;2024-01-11T09:39:49;0.90;;;0.47;;
12687;SDS011;6408;59.388;17.798;2024-01-11T09:42:16;0.30;;;0.23;;
12687;SDS011;6408;59.388;17.798;2024-01-11T09:44:46;0.73;;;0.30;;
12687;SDS011;6408;59.388;17.798;2024-01-11T09:47:23;1.40;;;0.30;;
12687;SDS011;6408;59.388;17.798;2024-01-11T09:49:51;0.83;;;0.33;;
12687;SDS011;6408;59.388;17.798;2024-01-11T09:52:23;1.40;;;0.77;;
12687;SDS011;6408;59.388;17.798;2024-01-11T09:54:57;0.73;;;0.40;;
12687;SDS011;6408;59.388;17.798;2024-01-11T09:57:26;0.73;;;0.43;;
12687;SDS011;6408;59.388;17.798;2024-01-11T09:59:59;0.60;;;0.40;;
12687;SDS011;6408;59.388;17.798;2024-01-11T10:09:14;1.93;;;0.37;;
12687;SDS011;6408;59.388;17.798;2024-01-11T10:11:41;0.90;;;0.53;;
12687;SDS011;6408;59.388;17.798;2024-01-11T10:14:10;2.00;;;0.40;;
12687;SDS011;6408;59.388;17.798;2024-01-11T10:16:39;0.30;;;0.30;;
12687;SDS011;6408;59.388;17.798;2024-01-11T10:19:09;0.80;;;0.30;;
12687;SDS011;6408;59.388;17.798;2024-01-11T10:21:40;0.63;;;0.50;;
12687;SDS011;6408;59.388;17.798;2024-01-11T10:24:08;1.73;;;0.50;;
12687;SDS011;6408;59.388;17.798;2024-01-11T10:26:35;0.43;;;0.27;;
12687;SDS011;6408;59.388;17.798;2024-01-11T10:29:35;0.87;;;0.50;;
12687;SDS011;6408;59.388;17.798;2024-01-11T10:32:03;0.30;;;0.30;;
12687;SDS011;6408;59.388;17.798;2024-01-11T10:34:33;0.60;;;0.40;;
12687;SDS011;6408;59.388;17.798;2024-01-11T10:37:06;0.97;;;0.40;;
12687;SDS011;6408;59.388;17.798;2024-01-11T10:39:37;1.50;;;0.50;;
12687;SDS011;6408;59.388;17.798;2024-01-11T10:42:07;0.30;;;0.30;;
12687;SDS011;6408;59.388;17.798;2024-01-11T10:44:36;1.40;;;0.20;;
12687;SDS011;6408;59.388;17.798;2024-01-11T10:47:11;1.23;;;0.60;;
12687;SDS011;6408;59.388;17.798;2024-01-11T10:49:41;0.70;;;0.33;;
12687;SDS011;6408;59.388;17.798;2024-01-11T10:52:20;0.70;;;0.40;;
12687;SDS011;6408;59.388;17.798;2024-01-11T10:54:56;0.30;;;0.23;;
12687;SDS011;6408;59.388;17.798;2024-01-11T10:57:27;0.73;;;0.47;;
12687;SDS011;6408;59.388;17.798;2024-01-11T11:00:16;0.70;;;0.30;;
12687;SDS011;6408;59.388;17.798;2024-01-11T11:02:44;1.33;;;0.53;;
12687;SDS011;6408;59.388;17.798;2024-01-11T11:05:13;1.60;;;0.50;;
12687;SDS011;6408;59.388;17.798;2024-01-11T11:07:45;1.40;;;0.37;;
12687;SDS011;6408;59.388;17.798;2024-01-11T11:10:17;0.70;;;0.53;;
12687;SDS011;6408;59.388;17.798;2024-01-11T11:12:45;0.47;;;0.23;;
12687;SDS011;6408;59.388;17.798;2024-01-11T11:15:17;0.13;;;0.10;;
12687;SDS011;6408;59.388;17.798;2024-01-11T11:17:45;0.40;;;0.30;;
12687;SDS011;6408;59.388;17.798;2024-01-11T11:20:12;0.40;;;0.33;;
12687;SDS011;6408;59.388;17.798;2024-01-11T11:22:41;1.57;;;0.40;;
12687;SDS011;6408;59.388;17.798;2024-01-11T11:25:11;0.47;;;0.30;;
12687;SDS011;6408;59.388;17.798;2024-01-11T11:27:50;1.13;;;0.37;;
12687;SDS011;6408;59.388;17.798;2024-01-11T11:30:18;0.57;;;0.30;;
12687;SDS011;6408;59.388;17.798;2024-01-11T11:32:46;3.73;;;0.60;;
12687;SDS011;6408;59.388;17.798;2024-01-11T11:35:16;0.47;;;0.30;;
12687;SDS011;6408;59.388;17.798;2024-01-11T11:37:44;1.57;;;0.40;;
12687;SDS011;6408;59.388;17.798;2024-01-11T11:40:15;0.63;;;0.40;;
12687;SDS011;6408;59.388;17.798;2024-01-11T11:42:47;0.60;;;0.33;;
12687;SDS011;6408;59.388;17.798;2024-01-11T11:45:18;0.20;;;0.20;;
12687;SDS011;6408;59.388;17.798;2024-01-11T11:47:51;0.43;;;0.30;;
12687;SDS011;6408;59.388;17.798;2024-01-11T11:50:21;1.43;;;0.20;;
12687;SDS011;6408;59.388;17.798;2024-01-11T11:52:53;1.60;;;0.30;;
12687;SDS011;6408;59.388;17.798;2024-01-11T11:55:26;1.13;;;0.63;;
12687;SDS011;6408;59.388;17.798;2024-01-11T11:57:56;0.30;;;0.30;;
12687;SDS011;6408;59.388;17.798;2024-01-11T12:00:23;0.97;;;0.40;;
12687;SDS011;6408;59.388;17.798;2024-01-11T12:02:50;1.20;;;0.50;;
12687;SDS011;6408;59.388;17.798;2024-01-11T12:05:22;1.43;;;0.30;;
12687;SDS011;6408;59.388;17.798;2024-01-11T12:07:53;1.07;;;0.70;;
12687;SDS011;6408;59.388;17.798;2024-01-11T12:10:21;2.20;;;0.50;;
12687;SDS011;6408;59.388;17.798;2024-01-11T12:12:50;2.20;;;0.53;;
12687;SDS011;6408;59.388;17.798;2024-01-11T12:15:17;0.57;;;0.30;;
12687;SDS011;6408;59.388;17.798;2024-01-11T12:17:45;0.27;;;0.20;;
12687;SDS011;6408;59.388;17.798;2024-01-11T12:20:21;1.50;;;0.57;;
12687;SDS011;6408;59.388;17.798;2024-01-11T12:23:01;0.33;;;0.20;;
12687;SDS011;6408;59.388;17.798;2024-01-11T12:25:31;1.40;;;0.50;;
12687;SDS011;6408;59.388;17.798;2024-01-11T12:28:03;0.70;;;0.40;;
12687;SDS011;6408;59.388;17.798;2024-01-11T12:30:32;0.30;;;0.20;;
12687;SDS011;6408;59.388;17.798;2024-01-11T12:33:01;0.67;;;0.30;;
12687;SDS011;6408;59.388;17.798;2024-01-11T12:35:30;0.83;;;0.30;;
12687;SDS011;6408;59.388;17.798;2024-01-11T12:37:58;1.87;;;0.30;;
12687;SDS011;6408;59.388;17.798;2024-01-11T12:40:28;0.10;;;0.10;;
12687;SDS011;6408;59.388;17.798;2024-01-11T12:42:59;0.73;;;0.30;;
12687;SDS011;6408;59.388;17.798;2024-01-11T12:45:28;1.53;;;0.60;;
12687;SDS011;6408;59.388;17.798;2024-01-11T12:47:57;0.97;;;0.40;;
12687;SDS011;6408;59.388;17.798;2024-01-11T12:50:25;0.57;;;0.30;;
12687;SDS011;6408;59.388;17.798;2024-01-11T12:53:07;0.80;;;0.30;;
12687;SDS011;6408;59.388;17.798;2024-01-11T12:55:38;0.20;;;0.20;;
12687;SDS011;6408;59.388;17.798;2024-01-11T12:58:10;1.60;;;0.50;;
12687;SDS011;6408;59.388;17.798;2024-01-11T13:03:22;1.50;;;0.40;;
12687;SDS011;6408;59.388;17.798;2024-01-11T13:05:53;1.07;;;0.50;;
12687;SDS011;6408;59.388;17.798;2024-01-11T13:08:24;0.57;;;0.37;;
12687;SDS011;6408;59.388;17.798;2024-01-11T13:10:54;0.87;;;0.30;;
12687;SDS011;6408;59.388;17.798;2024-01-11T13:13:21;1.77;;;0.30;;
12687;SDS011;6408;59.388;17.798;2024-01-11T13:15:49;1.07;;;0.50;;
12687;SDS011;6408;59.388;17.798;2024-01-11T13:18:19;0.67;;;0.47;;
12687;SDS011;6408;59.388;17.798;2024-01-11T13:20:47;0.30;;;0.20;;
12687;SDS011;6408;59.388;17.798;2024-01-11T13:23:14;0.43;;;0.30;;
12687;SDS011;6408;59.388;17.798;2024-01-11T13:25:45;0.97;;;0.30;;
12687;SDS011;6408;59.388;17.798;2024-01-11T13:28:13;0.97;;;0.40;;
12687;SDS011;6408;59.388;17.798;2024-01-11T13:30:40;1.83;;;0.57;;
12687;SDS011;6408;59.388;17.798;2024-01-11T13:33:10;0.40;;;0.40;;
12687;SDS011;6408;59.388;17.798;2024-01-11T13:35:40;0.93;;;0.70;;
12687;SDS011;6408;59.388;17.798;2024-01-11T13:38:08;1.13;;;0.90;;
12687;SDS011;6408;59.388;17.798;2024-01-11T13:40:36;1.40;;;0.87;;
12687;SDS011;6408;59.388;17.798;2024-01-11T13:43:05;2.47;;;0.87;;
12687;SDS011;6408;59.388;17.798;2024-01-11T13:45:32;2.83;;;0.80;;
12687;SDS011;6408;59.388;17.798;2024-01-11T13:48:01;1.00;;;0.80;;
12687;SDS011;6408;59.388;17.798;2024-01-11T13:50:32;1.23;;;0.67;;
12687;SDS011;6408;59.388;17.798;2024-01-11T13:53:05;2.97;;;1.13;;
12687;SDS011;6408;59.388;17.798;2024-01-11T13:55:32;2.40;;;1.00;;
12687;SDS011;6408;59.388;17.798;2024-01-11T13:58:03;2.43;;;0.80;;
12687;SDS011;6408;59.388;17.798;2024-01-11T14:00:32;1.47;;;0.70;;
12687;SDS011;6408;59.388;17.798;2024-01-11T14:03:00;1.30;;;0.73;;
12687;SDS011;6408;59.388;17.798;2024-01-11T14:05:28;2.17;;;0.60;;
12687;SDS011;6408;59.388;17.798;2024-01-11T14:07:56;1.17;;;0.70;;
12687;SDS011;6408;59.388;17.798;2024-01-11T14:10:28;0.37;;;0.37;;
12687;SDS011;6408;59.388;17.798;2024-01-11T14:12:55;0.40;;;0.40;;
12687;SDS011;6408;59.388;17.798;2024-01-11T14:15:24;3.70;;;0.53;;
12687;SDS011;6408;59.388;17.798;2024-01-11T14:17:52;0.37;;;0.37;;
12687;SDS011;6408;59.388;17.798;2024-01-11T14:20:19;5.17;;;2.60;;
12687;SDS011;6408;59.388;17.798;2024-01-11T14:22:49;9.37;;;5.50;;
12687;SDS011;6408;59.388;17.798;2024-01-11T14:25:28;2.97;;;1.63;;
12687;SDS011;6408;59.388;17.798;2024-01-11T14:27:57;1.67;;;1.17;;
12687;SDS011;6408;59.388;17.798;2024-01-11T14:30:26;1.40;;;1.13;;
12687;SDS011;6408;59.388;17.798;2024-01-11T14:32:54;1.27;;;1.13;;
12687;SDS011;6408;59.388;17.798;2024-01-11T14:35:24;1.13;;;0.80;;
12687;SDS011;6408;59.388;17.798;2024-01-11T14:37:51;1.03;;;0.73;;
12687;SDS011;6408;59.388;17.798;2024-01-11T14:40:20;4.50;;;0.63;;
12687;SDS011;6408;59.388;17.798;2024-01-11T14:42:49;2.07;;;0.70;;
12687;SDS011;6408;59.388;17.798;2024-01-11T14:45:18;1.43;;;0.70;;
12687;SDS011;6408;59.388;17.798;2024-01-11T14:47:45;1.50;;;1.20;;
12687;SDS011;6408;59.388;17.798;2024-01-11T14:50:13;1.50;;;0.90;;
12687;SDS011;6408;59.388;17.798;2024-01-11T14:52:40;3.20;;;1.10;;
12687;SDS011;6408;59.388;17.798;2024-01-11T14:55:08;0.97;;;0.90;;
12687;SDS011;6408;59.388;17.798;2024-01-11T14:57:36;1.17;;;0.80;;
12687;SDS011;6408;59.388;17.798;2024-01-11T15:00:08;1.00;;;0.90;;
12687;SDS011;6408;59.388;17.798;2024-01-11T15:02:54;1.20;;;1.10;;
12687;SDS011;6408;59.388;17.798;2024-01-11T15:05:21;2.50;;;0.70;;
12687;SDS011;6408;59.388;17.798;2024-01-11T15:07:52;3.00;;;0.93;;
12687;SDS011;6408;59.388;17.798;2024-01-11T15:10:21;3.77;;;1.93;;